Hauptseite
METAR-TAF:

METAR-TAF

Flughäfen :

Flughafen Kassel-Calden

Kassel, Deutschland

Breite: 51-24N, Länge: 009-23E, Höhe: 277 m

Beobachtung

Neuester Wetterbericht von vor 7 Stunden und 36 Minuten, um 18:20 UTC
Wind 8 kt aus Süd
Temperatur 14°C
Luftfeuchtigkeit 67%
Luftdruck 1002 hPa
Sichtweite 10 km oder mehr
Aufgelockert bewölkt in der Höhe von 3000 ft

METAR: EDVK 061820Z 18008KT 9999 SCT030 14/08 Q1002

Zeit: 03:56 (01:56 UTC)

Prognose

Neuester Wetterbericht von vor 8 Stunden und 56 Minuten, um 17:00 UTC
Gültige Prognose vom 06 um 18 UTC bis 07 um 03 UTC
Wind 7 kt aus Süd
Sichtweite 10 km oder mehr
keine Wolken unter 1500 m und keine Kumulonimbus oder Gewitterwolken
Wahrscheinlichkeit 30% :
Zeitweise
vom 06 um 18 UTC bis 06 um 21 UTC
Durchbrochene Bewölkung in der Höhe von 4000 ft, Towering cumulus.
Regenschauer

TAF: EDVK 061700Z 0618/0703 18007KT CAVOK PROB30 TEMPO 0618/0621 SHRA BKN040TCU

Wetterbeobachtungen und Prognosen von mehr als 4000 Flughäfen (METAR und TAF Bericht).

Die verfügbaren Stationen werden durch gelbe und rote Markierungen auf der Karte dargestellt.

Führen Sie die Maus auf sie, um den Namen der Station zu sehen.

Darauf klicken, um die Beobachtung von Wetterbeobachtungen und Prognosen zu sehen.

Um die Karte zu ändern : klicken Sie auf den grünen Tasten mit einem schwarzen Kreuz Zum Vergrößern, auf den grünen Button mit einem Gedankenstrich zu verkleinern, oder auf die grünen Pfeile für benachbarte Karten.


METAR-TAF: